LTAJ Airport Information

Runway Information
Runway 10L Length 9843 ft width 157 ft
Elevation 2315 ft Threshold 427 ft Heading 105
Runway 28R Length 9843 ft Width 157 ft
Elevation 2190 ft Threshold 0 ft Heading 285
Runway 10R Length 9842 ft width 100 ft
Elevation 2309 ft Threshold 328 ft Heading 105
Runway 28L Length 9842 ft Width 100 ft
Elevation 2215 ft Threshold 0 ft Heading 285
Airport Frequencies
Type APP Name APP Frequency 120.1 MHZ
Type ATIS Name Frequency 119.275 MHZ
Type TWR Name TWR Frequency 120.1 MHZ
Airport Navaids
Type VOR-DME Name Gaziantep Frequency 116700 KHZ
Type NDB Name Oguzeli Frequency 432 KHZ
Airport Weather Information & NOTAM
ADDS - METARS form results

(1804 UTC 18 March 2019)
Data provider http://aviationweather.gov/metar/data/
 
METAR text: LTAJ 181750Z 26008KT CAVOK 10/07 Q1018 NOSIG RMK RWY10 25006KT
Conditions at: LTAJ (GAZIANTEP , TR) observed 1750 UTC 18 March 2019
Temperature: 10.0°C (50°F)
Dewpoint: 7.0°C (45°F) [RH = 82%]
Pressure (altimeter): 30.06 inches Hg (1018.0 mb)
Winds: from the W (260 degrees) at 9 MPH (8 knots; 4.1 m/s)
Visibility: 6 or more miles (10+ km)
Ceiling: ceiling and visibility are OK
Clouds: unknown
Weather: no significant weather observed at this time

METAR text: LTAJ 181720Z 24005KT CAVOK 10/07 Q1018 NOSIG RMK RWY10 26007KT
Conditions at: LTAJ (GAZIANTEP , TR) observed 1720 UTC 18 March 2019
Temperature: 10.0°C (50°F)
Dewpoint: 7.0°C (45°F) [RH = 82%]
Pressure (altimeter): 30.06 inches Hg (1018.0 mb)
Winds: from the WSW (240 degrees) at 6 MPH (5 knots; 2.6 m/s)
Visibility: 6 or more miles (10+ km)
Ceiling: ceiling and visibility are OK
Clouds: unknown
Weather: no significant weather observed at this time

Forecast for: LTAJ (GAZIANTEP , TR)
Text: TAF LTAJ 181640Z 1818/1918 29012KT CAVOK
Forecast period: 1800 UTC 18 March 2019 to 1800 UTC 19 March 2019
Forecast type: FROM: standard forecast or significant change
Winds: from the WNW (290 degrees) at 14 MPH (12 knots; 6.2 m/s)
Visibility: 6 or more miles 10+ km)
Ceiling: unknown
Clouds: missing
Weather: NSW  (no significant weather)
Text: BECMG 1818/1820 VRB02KT
Forecast period: 1800 UTC 18 March 2019 to 0600 UTC 19 March 2019
Forecast type: BECOMING: Conditions expected to become as follows by 2000 UTC 18 March 2019
Winds: variable direction winds at 2 MPH (2 knots; 1.0 m/s)
Visibility: 6 or more miles 10+ km)
Ceiling: unknown
Clouds: missing
Weather: NSW  (no significant weather)
Text: BECMG 1906/1909 04012KT
Forecast period: 0600 to 1800 UTC 19 March 2019
Forecast type: BECOMING: Conditions expected to become as follows by 0900 UTC 19 March 2019
Winds: from the NE (40 degrees) at 14 MPH (12 knots; 6.2 m/s)
Visibility: 6 or more miles 10+ km)
Ceiling: unknown
Clouds: missing
Weather: NSW  (no significant weather)